Time;durP1;ratioP1;P1;durP2;ratioP2;P2;SDS_P1;SDS_P2;PMS_P1;PMS_P2;Temp;Humidity;BMP_temperature;BMP_pressure;BME280_temperature;BME280_humidity;BME280_pressure;Samples;Min_cycle;Max_cycle;Signal;HPM_P1;HPM_P2
2024/01/07 00:01:14;;;;;;;3.30;2.40;;;-0.40;99.90;;;;;;5020306;28;20520;-66
2024/01/07 00:03:42;;;;;;;2.27;2.07;;;-0.40;99.90;;;;;;5028452;28;20503;-66
2024/01/07 00:06:11;;;;;;;3.10;2.50;;;-0.40;99.90;;;;;;5007710;28;20479;-66
2024/01/07 00:08:39;;;;;;;2.60;2.40;;;-0.50;99.90;;;;;;5011733;28;20469;-66
2024/01/07 00:11:09;;;;;;;3.63;2.80;;;-0.50;99.90;;;;;;5000512;28;20520;-66
2024/01/07 00:13:37;;;;;;;3.53;2.70;;;-0.50;99.90;;;;;;5000918;28;20464;-66
2024/01/07 00:16:05;;;;;;;2.90;2.60;;;-0.60;99.90;;;;;;5009663;28;20499;-67
2024/01/07 00:18:33;;;;;;;3.13;2.83;;;-0.60;99.90;;;;;;5009039;28;20469;-66
2024/01/07 00:21:02;;;;;;;4.60;2.70;;;-0.60;99.90;;;;;;5004823;28;20508;-66
2024/01/07 00:23:30;;;;;;;2.80;2.30;;;-0.60;99.90;;;;;;5006064;28;20468;-66
2024/01/07 00:25:58;;;;;;;2.67;2.30;;;-0.70;99.90;;;;;;5007607;28;20532;-66
2024/01/07 00:28:27;;;;;;;3.10;2.80;;;-0.70;99.90;;;;;;5006436;28;20476;-66
2024/01/07 00:30:55;;;;;;;2.30;2.10;;;-0.70;99.90;;;;;;5004836;28;20481;-66
2024/01/07 00:33:23;;;;;;;3.20;2.53;;;-0.80;99.90;;;;;;5001198;28;20820;-66
2024/01/07 00:35:52;;;;;;;2.43;2.23;;;-0.80;99.90;;;;;;5006427;28;20468;-66
2024/01/07 00:38:20;;;;;;;2.87;2.13;;;-0.80;99.90;;;;;;5007073;28;20534;-66
2024/01/07 00:40:47;;;;;;;2.87;2.23;;;-0.80;99.90;;;;;;5001755;28;20560;-66
2024/01/07 00:43:15;;;;;;;2.53;2.33;;;-0.80;99.90;;;;;;5011611;28;20502;-66
2024/01/07 00:45:45;;;;;;;3.23;2.80;;;-0.80;99.90;;;;;;5003889;28;21044;-66
2024/01/07 00:48:13;;;;;;;3.50;2.80;;;-0.80;99.90;;;;;;5004242;28;20508;-66
2024/01/07 00:50:41;;;;;;;3.23;2.60;;;-0.80;99.90;;;;;;5005203;28;20577;-66
2024/01/07 00:53:09;;;;;;;2.83;2.30;;;-0.80;99.90;;;;;;5008011;28;20504;-66
2024/01/07 00:55:37;;;;;;;2.70;2.30;;;-0.80;99.90;;;;;;4996449;28;20534;-66
2024/01/07 00:58:05;;;;;;;4.23;2.20;;;-0.80;99.90;;;;;;5009599;28;20551;-66
2024/01/07 01:00:33;;;;;;;2.70;2.37;;;-0.80;99.90;;;;;;5002022;28;20481;-66
2024/01/07 01:03:03;;;;;;;3.30;2.30;;;-0.80;99.90;;;;;;5004763;28;20465;-66
2024/01/07 01:05:31;;;;;;;2.67;2.47;;;-0.80;99.90;;;;;;5002947;28;20551;-66
2024/01/07 01:07:59;;;;;;;3.00;2.70;;;-0.80;99.90;;;;;;5001845;28;20842;-66
2024/01/07 01:10:27;;;;;;;3.63;2.27;;;-0.80;99.90;;;;;;5005732;28;20527;-66
2024/01/07 01:12:55;;;;;;;2.60;2.40;;;-0.80;99.90;;;;;;5005065;28;20506;-67
2024/01/07 01:15:23;;;;;;;2.77;2.37;;;-0.80;99.90;;;;;;5022530;28;20499;-66
2024/01/07 01:17:51;;;;;;;2.33;2.13;;;-0.80;99.90;;;;;;5024580;28;20476;-66
2024/01/07 01:20:20;;;;;;;2.97;2.10;;;-0.80;99.90;;;;;;5005102;28;20919;-65
2024/01/07 01:22:48;;;;;;;3.60;2.30;;;-0.80;99.90;;;;;;5005595;28;20525;-66
2024/01/07 01:25:16;;;;;;;3.00;2.23;;;-0.80;99.90;;;;;;4998916;28;20534;-66
2024/01/07 01:27:44;;;;;;;4.17;2.17;;;-0.90;99.90;;;;;;5003141;28;20496;-66
2024/01/07 01:30:13;;;;;;;2.43;1.90;;;-0.90;99.90;;;;;;5002751;28;20580;-66
2024/01/07 01:32:41;;;;;;;2.50;2.30;;;-0.90;99.90;;;;;;5002447;28;20497;-66
2024/01/07 01:35:10;;;;;;;2.10;1.90;;;-1.00;99.90;;;;;;5002411;28;20507;-66
2024/01/07 01:37:39;;;;;;;2.77;2.47;;;-1.00;99.90;;;;;;4999387;28;21041;-66
2024/01/07 01:40:08;;;;;;;2.43;2.20;;;-1.00;99.90;;;;;;5005548;28;20483;-66
2024/01/07 01:42:36;;;;;;;3.40;2.20;;;-1.00;99.90;;;;;;5001033;28;20499;-66
2024/01/07 01:45:05;;;;;;;2.77;2.50;;;-1.00;99.90;;;;;;4997275;28;20488;-66
2024/01/07 01:47:33;;;;;;;2.50;2.10;;;-1.00;99.90;;;;;;4999665;28;20560;-65
2024/01/07 01:50:02;;;;;;;2.33;2.17;;;-1.00;99.90;;;;;;5000783;28;20480;-65
2024/01/07 01:52:30;;;;;;;2.37;2.07;;;-1.00;99.90;;;;;;4999289;28;20496;-65
2024/01/07 01:55:00;;;;;;;2.93;2.50;;;-1.00;99.90;;;;;;5006920;28;20551;-65
2024/01/07 01:57:34;;;;;;;3.00;2.13;;;-1.00;99.90;;;;;;5002127;28;20490;-64
2024/01/07 02:00:04;;;;;;;2.70;2.13;;;-1.00;99.90;;;;;;5005844;28;20498;-65
2024/01/07 02:02:34;;;;;;;2.33;2.00;;;-1.00;99.90;;;;;;5003109;28;20579;-65
2024/01/07 02:05:03;;;;;;;2.10;1.90;;;-0.90;99.90;;;;;;5002129;28;20483;-63
2024/01/07 02:07:31;;;;;;;2.07;1.87;;;-0.90;99.90;;;;;;5006530;28;20483;-65
2024/01/07 02:10:01;;;;;;;2.63;1.80;;;-0.90;99.90;;;;;;5001638;28;20556;-65
2024/01/07 02:12:29;;;;;;;2.80;2.10;;;-0.90;99.90;;;;;;5007824;28;20480;-65
2024/01/07 02:14:57;;;;;;;2.50;2.27;;;-0.90;99.90;;;;;;5003769;28;20476;-64
2024/01/07 02:17:25;;;;;;;2.10;2.00;;;-0.90;99.90;;;;;;5000081;28;20480;-64
2024/01/07 02:19:53;;;;;;;2.40;1.90;;;-0.90;99.90;;;;;;5007437;28;20538;-65
2024/01/07 02:22:21;;;;;;;2.37;2.10;;;-0.90;99.90;;;;;;5005495;28;20491;-65
2024/01/07 02:24:51;;;;;;;2.33;1.90;;;-0.90;99.90;;;;;;5004619;28;20508;-65
2024/01/07 02:27:19;;;;;;;2.47;2.27;;;-0.80;99.90;;;;;;5008603;28;20468;-65
2024/01/07 02:29:47;;;;;;;2.23;2.10;;;-0.80;99.90;;;;;;5003071;28;20548;-65
2024/01/07 02:32:15;;;;;;;2.07;1.90;;;-0.80;99.90;;;;;;4998949;28;21065;-65
2024/01/07 02:34:43;;;;;;;3.57;1.80;;;-0.80;99.90;;;;;;5003305;28;20467;-65
2024/01/07 02:37:12;;;;;;;1.97;1.80;;;-0.80;99.90;;;;;;5009751;28;20476;-65
2024/01/07 02:39:40;;;;;;;2.37;2.17;;;-0.70;99.90;;;;;;5007746;28;20467;-64
2024/01/07 02:42:12;;;;;;;2.13;1.93;;;-0.70;99.90;;;;;;5004330;28;20884;-64
2024/01/07 02:44:40;;;;;;;2.40;2.20;;;-0.70;99.90;;;;;;5000268;28;20571;-65
2024/01/07 02:47:08;;;;;;;2.10;1.87;;;-0.70;99.90;;;;;;5002507;28;20476;-64
2024/01/07 02:49:35;;;;;;;2.80;2.53;;;-0.70;99.90;;;;;;5004026;28;20491;-65
2024/01/07 02:52:04;;;;;;;3.90;2.00;;;-0.60;99.90;;;;;;5002935;28;20489;-65
2024/01/07 02:54:32;;;;;;;2.63;2.07;;;-0.60;99.90;;;;;;5007806;28;21005;-65
2024/01/07 02:57:00;;;;;;;2.57;1.93;;;-0.60;99.90;;;;;;5006198;28;20984;-65
2024/01/07 02:59:30;;;;;;;2.20;2.00;;;-0.60;99.90;;;;;;5003830;28;20543;-64
2024/01/07 03:01:58;;;;;;;2.43;2.10;;;-0.50;99.90;;;;;;5001786;28;20587;-65
2024/01/07 03:04:26;;;;;;;2.90;1.80;;;-0.50;99.90;;;;;;5002308;28;20865;-65
2024/01/07 03:06:53;;;;;;;2.40;2.20;;;-0.50;99.90;;;;;;5004022;28;20564;-64
2024/01/07 03:09:21;;;;;;;2.17;1.90;;;-0.50;99.90;;;;;;5005001;28;20571;-64
2024/01/07 03:11:49;;;;;;;1.83;1.73;;;-0.50;99.90;;;;;;5003615;28;20567;-64
2024/01/07 03:14:20;;;;;;;2.20;2.00;;;-0.40;99.90;;;;;;5003280;28;20473;-65
2024/01/07 03:16:49;;;;;;;2.33;2.13;;;-0.40;99.90;;;;;;5005572;28;20551;-64
2024/01/07 03:19:17;;;;;;;3.33;2.20;;;-0.40;99.90;;;;;;5008253;28;20474;-64
2024/01/07 03:21:45;;;;;;;2.50;2.30;;;-0.50;99.90;;;;;;5011009;28;20488;-64
2024/01/07 03:24:13;;;;;;;2.60;1.90;;;-0.40;99.90;;;;;;5007126;28;20977;-64
2024/01/07 03:26:41;;;;;;;2.10;1.80;;;-0.40;99.90;;;;;;5008096;28;20492;-64
2024/01/07 03:29:09;;;;;;;2.27;2.03;;;-0.40;99.90;;;;;;5014452;28;20475;-64
2024/01/07 03:31:37;;;;;;;4.00;2.00;;;-0.40;99.90;;;;;;5013142;28;20501;-65
2024/01/07 03:34:07;;;;;;;2.40;2.20;;;-0.30;99.90;;;;;;5016040;28;20500;-64
2024/01/07 03:36:35;;;;;;;5.20;1.80;;;-0.30;99.90;;;;;;5007309;28;21023;-63
2024/01/07 03:39:03;;;;;;;2.20;2.00;;;-0.40;99.90;;;;;;5003065;28;20555;-65
2024/01/07 03:41:31;;;;;;;2.60;1.80;;;-0.30;99.90;;;;;;5016890;28;20546;-64
2024/01/07 03:43:59;;;;;;;3.30;2.27;;;-0.30;99.90;;;;;;5011853;28;20476;-64
2024/01/07 03:46:27;;;;;;;3.00;2.20;;;-0.30;99.90;;;;;;5008827;28;20554;-65
2024/01/07 03:48:55;;;;;;;1.93;1.80;;;-0.20;99.90;;;;;;5006711;28;20555;-65
2024/01/07 03:51:24;;;;;;;1.67;1.57;;;-0.20;99.90;;;;;;5009929;28;20869;-64
2024/01/07 03:53:52;;;;;;;2.73;1.83;;;-0.20;99.90;;;;;;5002917;28;20477;-64
2024/01/07 03:56:20;;;;;;;2.47;2.00;;;-0.20;99.90;;;;;;5004079;28;20571;-65
2024/01/07 03:58:48;;;;;;;1.90;1.70;;;-0.20;99.90;;;;;;5002000;28;20552;-64
2024/01/07 04:01:17;;;;;;;4.30;1.90;;;-0.20;99.90;;;;;;5005126;28;21039;-65
2024/01/07 04:03:46;;;;;;;2.17;1.97;;;-0.20;99.90;;;;;;5008557;28;20480;-64
2024/01/07 04:06:14;;;;;;;1.70;1.60;;;-0.20;99.90;;;;;;5004531;28;20477;-65
2024/01/07 04:08:43;;;;;;;4.67;1.80;;;-0.10;99.90;;;;;;5004343;28;20476;-64
2024/01/07 04:11:11;;;;;;;2.30;1.80;;;-0.10;99.90;;;;;;4999243;28;20587;-64
2024/01/07 04:13:39;;;;;;;2.23;1.73;;;-0.10;99.90;;;;;;4995244;28;20472;-65
2024/01/07 04:16:16;;;;;;;2.00;1.87;;;-0.10;99.90;;;;;;5004345;28;20559;-64
2024/01/07 04:18:43;;;;;;;2.60;2.10;;;-0.10;99.90;;;;;;5005588;28;20568;-64
2024/01/07 04:21:12;;;;;;;2.40;1.80;;;-0.10;99.90;;;;;;5006781;28;20534;-65
2024/01/07 04:23:40;;;;;;;1.87;1.77;;;-0.10;99.90;;;;;;5003595;28;20987;-65
2024/01/07 04:26:10;;;;;;;2.10;1.80;;;-0.10;99.90;;;;;;5006205;28;20507;-65
2024/01/07 04:28:41;;;;;;;3.47;1.80;;;0.00;99.90;;;;;;5002787;28;20523;-64
2024/01/07 04:31:10;;;;;;;2.30;2.10;;;0.00;99.90;;;;;;5004108;28;21228;-65
2024/01/07 04:33:38;;;;;;;2.90;1.80;;;0.00;99.90;;;;;;5003227;28;20476;-65
2024/01/07 04:36:07;;;;;;;2.33;1.40;;;0.00;99.90;;;;;;5004695;28;20471;-65
2024/01/07 04:38:36;;;;;;;1.97;1.77;;;0.00;99.90;;;;;;5001678;28;20519;-64
2024/01/07 04:41:07;;;;;;;1.50;1.40;;;0.00;99.90;;;;;;5001538;28;20574;-65
2024/01/07 04:43:36;;;;;;;1.53;1.37;;;0.10;99.90;;;;;;5006196;28;20480;-65
2024/01/07 04:46:05;;;;;;;1.17;1.10;;;0.20;99.90;;;;;;5002485;28;20938;-65
2024/01/07 04:48:33;;;;;;;3.23;1.60;;;0.20;99.90;;;;;;5005901;28;20469;-65
2024/01/07 04:51:01;;;;;;;1.97;1.30;;;0.20;99.90;;;;;;5007337;28;20923;-64
2024/01/07 04:53:29;;;;;;;2.30;1.40;;;0.20;99.90;;;;;;4999864;28;20591;-65
2024/01/07 04:55:57;;;;;;;1.40;1.30;;;0.20;99.90;;;;;;5005928;28;20555;-64
2024/01/07 04:58:25;;;;;;;1.50;1.40;;;0.20;99.90;;;;;;5000448;28;20481;-65
2024/01/07 05:00:54;;;;;;;1.60;1.50;;;0.20;99.90;;;;;;5002464;28;20539;-65
2024/01/07 05:03:22;;;;;;;3.00;1.37;;;0.20;99.90;;;;;;5004300;28;20579;-64
2024/01/07 05:05:50;;;;;;;2.23;1.20;;;0.20;99.90;;;;;;5006968;28;20468;-64
2024/01/07 05:08:18;;;;;;;1.93;1.30;;;0.20;99.90;;;;;;5008175;28;20469;-65
2024/01/07 05:10:46;;;;;;;1.80;1.70;;;0.20;99.90;;;;;;5003944;28;20561;-64
2024/01/07 05:13:14;;;;;;;1.30;1.23;;;0.30;99.90;;;;;;4995123;28;20567;-64
2024/01/07 05:15:42;;;;;;;1.73;1.47;;;0.20;99.90;;;;;;4994778;28;20503;-64
2024/01/07 05:18:12;;;;;;;1.63;1.53;;;0.20;99.90;;;;;;5008232;28;20547;-65
2024/01/07 05:20:42;;;;;;;1.80;1.70;;;0.30;99.90;;;;;;5002034;28;20490;-64
2024/01/07 05:23:10;;;;;;;1.63;1.23;;;0.20;99.90;;;;;;5004112;28;20528;-64
2024/01/07 05:25:38;;;;;;;2.27;1.50;;;0.30;99.90;;;;;;5004211;28;20568;-64
2024/01/07 05:28:06;;;;;;;1.33;1.23;;;0.20;99.90;;;;;;5006522;28;20563;-65
2024/01/07 05:30:35;;;;;;;1.73;1.30;;;0.20;99.90;;;;;;5003285;28;20484;-64
2024/01/07 05:33:03;;;;;;;1.50;1.37;;;0.20;99.90;;;;;;4999854;28;20510;-65
2024/01/07 05:35:33;;;;;;;1.40;1.30;;;0.20;99.90;;;;;;5005513;28;20481;-65
2024/01/07 05:38:01;;;;;;;1.40;1.30;;;0.20;99.90;;;;;;5003478;28;20519;-65
2024/01/07 05:40:29;;;;;;;1.30;1.20;;;0.20;99.90;;;;;;5000171;28;20480;-64
2024/01/07 05:42:57;;;;;;;1.40;1.30;;;0.20;99.90;;;;;;4999106;28;20499;-64
2024/01/07 05:45:25;;;;;;;1.70;1.47;;;0.20;99.90;;;;;;5003082;28;20964;-65
2024/01/07 05:47:53;;;;;;;1.77;1.50;;;0.20;99.90;;;;;;4999482;28;20970;-64
2024/01/07 05:50:21;;;;;;;1.60;1.50;;;0.20;99.90;;;;;;5001890;28;20480;-65
2024/01/07 05:52:50;;;;;;;3.13;1.40;;;0.20;99.90;;;;;;5007192;28;20488;-64
2024/01/07 05:55:18;;;;;;;1.63;1.53;;;0.20;99.90;;;;;;5004123;28;21021;-65
2024/01/07 05:57:46;;;;;;;1.90;1.60;;;0.20;99.90;;;;;;5002844;28;20480;-65
2024/01/07 06:00:15;;;;;;;2.47;1.30;;;0.20;99.90;;;;;;5002857;28;20488;-65
2024/01/07 06:02:43;;;;;;;1.77;1.50;;;0.20;99.90;;;;;;5004251;28;21127;-65
2024/01/07 06:05:11;;;;;;;1.50;1.40;;;0.20;99.90;;;;;;4997786;28;20476;-64
2024/01/07 06:07:39;;;;;;;1.67;1.57;;;0.20;99.90;;;;;;5004996;28;20467;-65
2024/01/07 06:10:09;;;;;;;2.30;1.70;;;0.20;99.90;;;;;;5008427;28;20487;-65
2024/01/07 06:12:38;;;;;;;1.67;1.50;;;0.10;99.90;;;;;;5006752;28;20516;-65
2024/01/07 06:15:06;;;;;;;1.80;1.70;;;0.20;99.90;;;;;;5005470;28;20477;-65
2024/01/07 06:17:34;;;;;;;1.60;1.50;;;0.20;99.90;;;;;;5005451;28;20504;-65
2024/01/07 06:20:03;;;;;;;3.10;2.30;;;0.20;99.90;;;;;;5009719;28;20468;-65
2024/01/07 06:22:31;;;;;;;2.60;1.70;;;0.20;99.90;;;;;;5010900;28;21003;-65
2024/01/07 06:24:59;;;;;;;2.30;2.10;;;0.20;99.90;;;;;;5011362;28;20506;-64
2024/01/07 06:27:31;;;;;;;2.13;1.97;;;0.20;99.90;;;;;;5007014;28;20479;-64
2024/01/07 06:29:59;;;;;;;2.97;1.90;;;0.20;99.90;;;;;;5006662;28;20896;-64
2024/01/07 06:32:27;;;;;;;1.87;1.77;;;0.20;99.90;;;;;;5008940;28;20567;-65
2024/01/07 06:34:55;;;;;;;2.47;2.00;;;0.20;99.90;;;;;;5007290;28;20500;-64
2024/01/07 06:37:23;;;;;;;2.43;2.10;;;0.20;99.90;;;;;;5007298;28;20492;-65
2024/01/07 06:39:51;;;;;;;2.00;1.90;;;0.20;99.90;;;;;;5006822;28;20480;-64
2024/01/07 06:42:19;;;;;;;1.90;1.80;;;0.20;99.90;;;;;;5008110;28;21879;-64
2024/01/07 06:44:49;;;;;;;2.40;2.20;;;0.20;99.90;;;;;;5009545;28;20518;-65
2024/01/07 06:47:17;;;;;;;3.00;2.40;;;0.20;99.90;;;;;;5005903;28;20472;-64
2024/01/07 06:49:45;;;;;;;2.03;1.93;;;0.10;99.90;;;;;;5006416;28;20909;-65
2024/01/07 06:52:13;;;;;;;2.60;2.10;;;0.20;99.90;;;;;;5004299;28;20492;-65
2024/01/07 06:54:41;;;;;;;2.43;2.23;;;0.10;99.90;;;;;;5003256;28;20476;-65
2024/01/07 06:57:09;;;;;;;3.00;2.40;;;0.20;99.90;;;;;;5003112;28;20477;-64
2024/01/07 06:59:36;;;;;;;2.50;2.20;;;0.20;99.90;;;;;;5001764;28;20566;-65
2024/01/07 07:02:06;;;;;;;2.50;2.30;;;0.20;99.90;;;;;;5004328;28;21283;-65
2024/01/07 07:04:34;;;;;;;4.57;2.70;;;0.20;99.90;;;;;;4998352;28;20495;-65
2024/01/07 07:07:02;;;;;;;4.60;2.70;;;0.20;99.90;;;;;;5001097;28;20487;-65
2024/01/07 07:09:30;;;;;;;3.37;2.70;;;0.20;99.90;;;;;;5002573;28;21326;-65
2024/01/07 07:11:58;;;;;;;3.70;3.00;;;0.30;99.90;;;;;;5001810;28;20541;-64
2024/01/07 07:14:26;;;;;;;3.57;3.10;;;0.30;99.90;;;;;;4999806;28;20928;-64
2024/01/07 07:16:54;;;;;;;7.97;3.30;;;0.30;99.90;;;;;;4997022;28;20892;-65
2024/01/07 07:19:23;;;;;;;3.87;3.50;;;0.30;99.90;;;;;;5004479;28;20884;-65
2024/01/07 07:21:51;;;;;;;6.73;3.57;;;0.30;99.90;;;;;;5005616;28;21034;-64
2024/01/07 07:24:20;;;;;;;2.80;2.60;;;0.30;99.90;;;;;;5011441;28;20500;-65
2024/01/07 07:26:47;;;;;;;4.10;3.17;;;0.20;99.90;;;;;;5014861;28;20468;-64
2024/01/07 07:29:15;;;;;;;3.27;2.97;;;0.30;99.90;;;;;;5004104;28;20561;-64
2024/01/07 07:31:43;;;;;;;4.63;3.63;;;0.30;99.90;;;;;;5006526;28;21040;-65
2024/01/07 07:34:13;;;;;;;3.83;3.40;;;0.30;99.90;;;;;;5007766;28;20526;-64
2024/01/07 07:36:44;;;;;;;4.30;3.30;;;0.30;99.90;;;;;;4995150;28;20487;-64
2024/01/07 07:39:14;;;;;;;5.60;4.60;;;0.30;99.90;;;;;;4994305;28;20476;-65
2024/01/07 07:41:42;;;;;;;3.97;3.57;;;0.30;99.90;;;;;;4995708;28;20595;-64
2024/01/07 07:44:10;;;;;;;5.93;3.37;;;0.30;99.90;;;;;;4998093;28;21125;-65
2024/01/07 07:46:38;;;;;;;3.70;3.10;;;0.30;99.90;;;;;;5004534;28;20564;-64
2024/01/07 07:49:06;;;;;;;5.67;3.70;;;0.30;99.90;;;;;;5010824;23;20536;-70
2024/01/07 07:51:34;;;;;;;5.60;3.13;;;0.30;99.90;;;;;;5004590;28;20523;-68
2024/01/07 07:54:04;;;;;;;6.30;3.73;;;0.30;99.90;;;;;;5008303;28;20534;-68
2024/01/07 07:56:32;;;;;;;4.03;3.20;;;0.20;99.90;;;;;;5001216;28;20572;-68
2024/01/07 07:59:00;;;;;;;7.30;3.43;;;0.20;99.90;;;;;;4998404;28;20516;-66
2024/01/07 08:01:28;;;;;;;3.87;3.27;;;0.20;99.90;;;;;;5000689;28;20520;-67
2024/01/07 08:03:56;;;;;;;3.50;3.20;;;0.20;99.90;;;;;;5005200;28;20503;-66
2024/01/07 08:06:24;;;;;;;3.90;3.40;;;0.10;99.90;;;;;;5001889;28;20467;-68
2024/01/07 08:08:52;;;;;;;4.43;2.97;;;0.10;99.90;;;;;;5000888;28;20508;-68
2024/01/07 08:11:22;;;;;;;4.53;3.17;;;0.10;99.90;;;;;;4993499;28;20492;-67
2024/01/07 08:13:50;;;;;;;4.13;3.23;;;0.00;99.90;;;;;;4998263;28;20469;-67
2024/01/07 08:16:18;;;;;;;3.63;3.33;;;0.00;99.90;;;;;;5002029;28;20612;-68
2024/01/07 08:18:47;;;;;;;4.27;3.27;;;0.00;99.90;;;;;;4999542;28;20578;-67
2024/01/07 08:21:15;;;;;;;4.40;3.40;;;0.00;99.90;;;;;;4991099;28;20604;-67
2024/01/07 08:23:43;;;;;;;3.30;3.00;;;0.00;99.90;;;;;;4993863;28;20595;-67
2024/01/07 08:26:12;;;;;;;3.70;3.37;;;0.00;99.90;;;;;;4998733;28;20495;-68
2024/01/07 08:28:42;;;;;;;3.83;3.07;;;0.00;99.90;;;;;;4999544;28;20493;-68
2024/01/07 08:31:10;;;;;;;3.80;3.03;;;-0.10;99.90;;;;;;5011110;28;20579;-67
2024/01/07 08:33:38;;;;;;;3.50;3.00;;;-0.10;99.90;;;;;;5010931;28;20480;-68
2024/01/07 08:36:07;;;;;;;3.30;3.00;;;-0.10;99.90;;;;;;5012898;28;20484;-68
2024/01/07 08:38:35;;;;;;;4.80;3.37;;;-0.10;99.90;;;;;;5007947;28;20951;-67
2024/01/07 08:41:04;;;;;;;4.00;3.40;;;-0.10;99.90;;;;;;5008796;28;20554;-67
2024/01/07 08:43:32;;;;;;;6.30;3.67;;;-0.10;99.90;;;;;;5011365;28;20524;-67
2024/01/07 08:46:01;;;;;;;3.93;3.57;;;-0.10;99.90;;;;;;5010090;28;20476;-67
2024/01/07 08:48:29;;;;;;;4.13;3.53;;;-0.10;99.90;;;;;;5007261;28;20488;-67
2024/01/07 08:50:57;;;;;;;4.30;3.27;;;-0.20;99.90;;;;;;5010112;28;20579;-67
2024/01/07 08:53:25;;;;;;;3.87;3.40;;;-0.20;99.90;;;;;;5010271;28;20551;-67
2024/01/07 08:55:53;;;;;;;3.57;3.03;;;-0.20;99.90;;;;;;5009772;28;20576;-68
2024/01/07 08:58:21;;;;;;;3.57;2.90;;;-0.30;99.90;;;;;;5008743;28;20935;-68
2024/01/07 09:00:49;;;;;;;3.30;2.93;;;-0.30;99.90;;;;;;5010896;28;20472;-67
2024/01/07 09:03:18;;;;;;;3.37;3.03;;;-0.30;99.90;;;;;;5012632;28;20464;-68
2024/01/07 09:05:46;;;;;;;3.43;3.00;;;-0.30;99.90;;;;;;5011542;28;20492;-67
2024/01/07 09:08:15;;;;;;;3.47;2.90;;;-0.30;99.90;;;;;;5003426;28;20482;-67
2024/01/07 09:10:43;;;;;;;4.20;3.40;;;-0.40;99.90;;;;;;5003378;28;20476;-67
2024/01/07 09:13:11;;;;;;;4.80;3.43;;;-0.40;99.90;;;;;;5009376;28;20503;-67
2024/01/07 09:15:39;;;;;;;3.00;2.70;;;-0.30;99.90;;;;;;5014014;28;20460;-67
2024/01/07 09:18:07;;;;;;;3.87;3.47;;;-0.30;99.90;;;;;;5008680;28;20495;-67
2024/01/07 09:20:37;;;;;;;4.73;3.00;;;-0.30;99.90;;;;;;5011476;28;20544;-68
2024/01/07 09:23:05;;;;;;;4.83;3.30;;;-0.30;99.90;;;;;;5014021;28;20538;-68
2024/01/07 09:25:33;;;;;;;3.60;3.10;;;-0.30;99.90;;;;;;5005572;28;21063;-67
2024/01/07 09:28:01;;;;;;;5.03;3.60;;;-0.30;99.90;;;;;;5013236;28;20559;-68
2024/01/07 09:30:29;;;;;;;4.30;3.87;;;-0.40;99.90;;;;;;5006340;28;20480;-68
2024/01/07 09:32:57;;;;;;;3.27;2.90;;;-0.40;99.90;;;;;;5005576;28;20911;-68
2024/01/07 09:35:26;;;;;;;4.93;3.43;;;-0.40;99.90;;;;;;5010254;28;20491;-68
2024/01/07 09:37:55;;;;;;;4.47;3.10;;;-0.40;99.90;;;;;;5001681;28;20550;-68
2024/01/07 09:40:23;;;;;;;4.90;3.93;;;-0.40;99.90;;;;;;5002245;28;20553;-68
2024/01/07 09:42:51;;;;;;;4.07;3.67;;;-0.50;99.90;;;;;;5008562;28;20469;-68
2024/01/07 09:45:21;;;;;;;3.50;3.20;;;-0.50;99.90;;;;;;5008275;28;20489;-68
2024/01/07 09:47:50;;;;;;;3.70;2.90;;;-0.50;99.90;;;;;;5007951;28;20510;-68
2024/01/07 09:50:18;;;;;;;3.40;3.00;;;-0.50;99.90;;;;;;5010346;28;20480;-68
2024/01/07 09:52:47;;;;;;;4.83;3.10;;;-0.50;99.90;;;;;;5015694;28;20526;-68
2024/01/07 09:55:27;;;;;;;3.67;2.80;;;-0.50;99.90;;;;;;5004723;28;20499;-68
2024/01/07 09:57:55;;;;;;;3.70;2.60;;;-0.50;99.90;;;;;;5011483;28;20545;-68
2024/01/07 10:00:23;;;;;;;3.00;2.70;;;-0.50;99.90;;;;;;5011379;28;20476;-68
2024/01/07 10:02:51;;;;;;;3.77;3.10;;;-0.50;99.90;;;;;;5010619;28;20467;-68
2024/01/07 10:05:19;;;;;;;3.33;2.87;;;-0.50;99.90;;;;;;5016164;28;20571;-68
2024/01/07 10:07:48;;;;;;;4.40;3.10;;;-0.50;99.90;;;;;;5013285;28;20511;-68
2024/01/07 10:10:18;;;;;;;4.27;3.30;;;-0.60;99.90;;;;;;5003709;28;20531;-68
2024/01/07 10:12:47;;;;;;;4.20;3.10;;;-0.50;99.90;;;;;;5007398;28;20555;-68
2024/01/07 10:15:15;;;;;;;5.20;3.70;;;-0.60;99.90;;;;;;5004861;28;20508;-68
2024/01/07 10:17:45;;;;;;;3.80;3.37;;;-0.60;99.90;;;;;;5011362;28;20473;-68
2024/01/07 10:20:13;;;;;;;4.03;3.60;;;-0.60;99.90;;;;;;5006339;28;20496;-68
2024/01/07 10:22:41;;;;;;;4.00;3.60;;;-0.60;99.90;;;;;;5010959;28;20472;-68
2024/01/07 10:25:09;;;;;;;6.20;4.33;;;-0.50;99.90;;;;;;5011652;28;20487;-68
2024/01/07 10:27:38;;;;;;;5.10;4.00;;;-0.50;99.90;;;;;;5013965;28;20538;-68
2024/01/07 10:30:08;;;;;;;3.50;3.20;;;-0.40;99.90;;;;;;5021501;28;20503;-69
2024/01/07 10:32:37;;;;;;;5.23;3.80;;;-0.40;99.90;;;;;;5017854;28;20482;-68
2024/01/07 10:35:14;;;;;;;4.43;3.07;;;-0.30;99.90;;;;;;5021880;28;20536;-68
2024/01/07 10:37:42;;;;;;;3.60;3.30;;;-0.30;99.90;;;;;;5016224;28;20669;-67
2024/01/07 10:40:13;;;;;;;3.60;3.30;;;-0.20;99.90;;;;;;5008977;28;20480;-68
2024/01/07 10:42:45;;;;;;;3.07;2.70;;;-0.20;99.90;;;;;;5009337;28;20468;-68
2024/01/07 10:45:14;;;;;;;3.27;2.97;;;-0.10;99.90;;;;;;4999869;28;20564;-68
2024/01/07 10:47:47;;;;;;;3.60;3.07;;;0.00;99.90;;;;;;4995144;28;20488;-69
2024/01/07 10:50:17;;;;;;;3.33;3.10;;;0.00;99.90;;;;;;4999278;28;20488;-68
2024/01/07 10:52:51;;;;;;;3.23;2.83;;;0.10;99.90;;;;;;5002146;28;20538;-69
2024/01/07 10:55:20;;;;;;;3.47;3.00;;;0.10;99.90;;;;;;4994317;28;20555;-68
2024/01/07 10:57:50;;;;;;;4.47;3.23;;;0.10;99.90;;;;;;4997346;28;20905;-68
2024/01/07 11:00:22;;;;;;;4.57;3.80;;;0.10;99.90;;;;;;4996228;28;20556;-68
2024/01/07 11:02:59;;;;;;;4.23;3.47;;;0.10;99.90;;;;;;4985333;28;20981;-63
2024/01/07 11:05:35;;;;;;;3.50;2.97;;;0.10;99.90;;;;;;4987286;28;20659;-69
2024/01/07 11:08:08;;;;;;;4.10;3.70;;;0.10;99.90;;;;;;5004709;28;21010;-68
2024/01/07 11:10:42;;;;;;;3.50;3.20;;;0.00;99.90;;;;;;4991344;28;20599;-68
2024/01/07 11:13:37;;;;;;;3.30;3.00;;;0.00;99.90;;;;;;4990528;28;20472;-68
2024/01/07 11:16:09;;;;;;;5.23;3.43;;;0.00;99.90;;;;;;4994539;28;20511;-68
2024/01/07 11:18:40;;;;;;;4.00;3.57;;;0.10;99.90;;;;;;4991451;28;20489;-68
2024/01/07 11:21:08;;;;;;;4.77;3.67;;;0.20;99.90;;;;;;4988258;28;20607;-68
2024/01/07 11:23:43;;;;;;;4.07;3.67;;;0.20;99.90;;;;;;4991426;28;20568;-68
2024/01/07 11:26:13;;;;;;;6.53;3.93;;;0.30;99.90;;;;;;4991372;28;20595;-69
2024/01/07 11:28:47;;;;;;;4.03;3.33;;;0.20;99.90;;;;;;5000865;28;20692;-69
2024/01/07 11:31:17;;;;;;;4.23;3.83;;;0.20;99.90;;;;;;4999612;28;20479;-69
2024/01/07 11:33:47;;;;;;;4.50;3.97;;;0.20;99.90;;;;;;4989652;28;20492;-69
2024/01/07 11:36:16;;;;;;;3.50;3.20;;;0.20;99.90;;;;;;5009332;28;20979;-69
2024/01/07 11:38:45;;;;;;;4.10;3.70;;;0.20;99.90;;;;;;4990788;28;20593;-69
2024/01/07 11:41:18;;;;;;;3.93;3.53;;;0.20;99.90;;;;;;4982010;28;20475;-68
2024/01/07 11:43:58;;;;;;;3.70;3.40;;;0.10;99.90;;;;;;4998066;28;20536;-68
2024/01/07 11:46:34;;;;;;;3.80;3.43;;;0.10;99.90;;;;;;5004117;28;20542;-68
2024/01/07 11:49:03;;;;;;;3.33;3.03;;;0.10;99.90;;;;;;4998297;28;20524;-68
2024/01/07 11:51:34;;;;;;;3.20;2.97;;;0.10;99.90;;;;;;4990902;28;20528;-69
2024/01/07 11:54:03;;;;;;;4.30;3.50;;;0.20;99.90;;;;;;5001354;28;20481;-68
2024/01/07 11:56:31;;;;;;;3.00;2.70;;;0.30;99.90;;;;;;4992466;28;20575;-68
2024/01/07 11:59:00;;;;;;;4.43;3.60;;;0.30;99.90;;;;;;4993959;28;20514;-69
2024/01/07 12:01:29;;;;;;;4.10;3.63;;;0.30;99.90;;;;;;5002209;28;20747;-68
2024/01/07 12:03:57;;;;;;;3.27;2.97;;;0.30;99.90;;;;;;5001621;28;21012;-68
2024/01/07 12:06:26;;;;;;;3.97;3.60;;;0.30;99.90;;;;;;4991345;28;20500;-68
2024/01/07 12:08:54;;;;;;;3.60;3.27;;;0.40;99.90;;;;;;4998658;28;20571;-68
2024/01/07 12:11:23;;;;;;;4.20;3.30;;;0.40;99.90;;;;;;5004422;28;20487;-68
2024/01/07 12:13:51;;;;;;;3.07;2.77;;;0.50;99.90;;;;;;4994899;28;20553;-67
2024/01/07 12:16:21;;;;;;;2.90;2.70;;;0.60;99.90;;;;;;4991352;28;20546;-68
2024/01/07 12:18:49;;;;;;;4.10;2.70;;;0.50;99.90;;;;;;4988537;28;20494;-68
2024/01/07 12:21:21;;;;;;;3.43;3.13;;;0.50;99.90;;;;;;4990125;28;20907;-68
2024/01/07 12:23:50;;;;;;;3.40;3.10;;;0.40;99.90;;;;;;4995835;28;20461;-67
2024/01/07 12:26:19;;;;;;;5.30;3.53;;;0.40;99.90;;;;;;4990408;28;20492;-68
2024/01/07 12:28:53;;;;;;;2.90;2.70;;;0.40;99.90;;;;;;4999821;28;20488;-71
2024/01/07 12:31:23;;;;;;;4.40;3.10;;;0.40;99.90;;;;;;4993683;28;20532;-68
2024/01/07 12:33:52;;;;;;;5.73;3.60;;;0.40;99.90;;;;;;4986392;28;20566;-69
2024/01/07 12:36:22;;;;;;;8.03;5.10;;;0.50;99.90;;;;;;4994982;28;20495;-69
2024/01/07 12:38:51;;;;;;;4.20;3.50;;;0.60;99.90;;;;;;4992999;28;21048;-70
2024/01/07 12:41:19;;;;;;;4.33;3.60;;;0.70;99.90;;;;;;4998551;28;20552;-70
2024/01/07 12:43:47;;;;;;;3.50;2.80;;;0.80;99.90;;;;;;4997782;28;20515;-70
2024/01/07 12:46:15;;;;;;;4.17;3.80;;;0.90;99.90;;;;;;4990856;28;25800;-69
2024/01/07 12:48:44;;;;;;;5.10;3.80;;;0.80;99.90;;;;;;4988142;28;20487;-69
2024/01/07 12:51:13;;;;;;;3.27;2.67;;;0.80;99.90;;;;;;4985852;28;20573;-70
2024/01/07 12:53:41;;;;;;;3.00;2.60;;;0.90;99.90;;;;;;4970835;28;20486;-69
2024/01/07 12:56:09;;;;;;;3.13;2.60;;;0.80;99.90;;;;;;5001539;28;20473;-69
2024/01/07 12:58:37;;;;;;;4.27;2.83;;;0.80;99.90;;;;;;4988785;28;20953;-69
2024/01/07 13:01:05;;;;;;;3.30;2.73;;;0.80;99.90;;;;;;4992576;28;20579;-70